Bei Facebook empfehlenBei Twitter postenGoogle plusPinterest

Das Wetter im Erzgebirge am 23.06.2015

Wetter und Klima am 23.06.2015 Holzhau im Erzgebirge (630m ü.NN)
Letzte gemessene Temperatur und Uhrzeit der Messung23:45:00 Uhr5.40 °C
Temperatur (Maximum / Höchstwert) und Uhrzeit der Messung16:15:00 Uhr13.40 °C
Temperatur (Minimum / Tiefstwert) und Uhrzeit der Messung23:45:005.40 °C
Errechneter Absolutwert der Temperaturschwankungen zwischen Tmin und Tmax des Tages8.00 K
Errechnete Tagesmitteltemperatur9.18958 °C
Gesamt - Niederschlag des Tages (in flüssiger Form)6.73 Liter / m²
Luftdruck (Maximum / Höchstwert) und Zeitpunkt der Messung23:45:00 Uhr1012.80 hPa
Luftdruck (Minimum / Tiefstwert) und Zeitpunkt der Messung04:15:00 Uhr1002.70 hPa
Errechneter Absolutwert der Luftdruckschwankungen des Tages10.10 hPa
Höchste gemessene Windgeschwindigkeit und Uhrzeit der Messung09:30:00 Uhr18.72 km/h
Errechnete Windhäufigkeit in Relation zu den Messwerten des Tages28.12500 %
Niedrigste Windkühle (Windchill) und Zeitpunkt der Messung23:45:00 Uhr5.40 °C
Taupunkt (Maximum / Höchstwert) und Uhrzeit der Messung13:15:00 Uhr8.80 °C
Taupunkt (Minimum / Tiefstwert) und Uhrzeit der Messung23:00:003.50 °C
Anzahl der automatisch eingelesenen Messwerte 96

Detaillierte Wetter- und Klima- Messwerte für den 23.06.2015 in Holzhau im Erzgebirge (630m ü.NN)
ZeitTemperaturLuftdruckRel. LuftfeuchteWindWindrichtungWindchillTaupunktNiederschlag l/m²
23:45:005.40 °C1012.80 hPa89.00 %3.70 °C6.73
23:30:005.40 °C1012.60 hPa89.00 %3.70 °C6.73
23:15:005.40 °C1012.50 hPa88.00 %3.60 °C6.73
23:00:005.50 °C1012.60 hPa87.00 %3.50 °C6.73
22:45:005.80 °C1012.40 hPa87.00 %3.80 °C6.73
22:30:006.30 °C1012.20 hPa86.00 %4.10 °C6.21
22:15:006.80 °C1012.00 hPa85.00 %4.50 °C6.21
22:00:007.00 °C1012.00 hPa85.00 %4.70 °C6.21
21:45:007.00 °C1011.90 hPa84.00 %4.50 °C6.21
21:30:006.90 °C1011.70 hPa82.00 %4.00 °C6.21
21:15:007.50 °C1011.40 hPa79.00 %4.10 °C6.21
21:00:008.20 °C1011.10 hPa78.00 %4.60 °C6.21
20:45:009.10 °C1010.90 hPa76.00 %5.10 °C6.21
20:30:0010.10 °C1010.70 hPa74.00 %5.70 °C6.21
20:15:0011.10 °C1010.60 hPa73.00 %6.50 °C6.21
20:00:0011.70 °C1010.50 hPa75.00 %2.16 km/hNNW11.70 °C7.40 °C6.21
19:45:0011.60 °C1010.50 hPa78.00 %7.90 °C6.21
19:30:0010.80 °C1010.40 hPa80.00 %5.40 km/hWNW10.50 °C7.50 °C6.21
19:15:0010.60 °C1010.30 hPa77.00 %5.76 km/hSSW10.20 °C6.70 °C6.21
19:00:0011.60 °C1010.20 hPa73.00 %6.48 km/hSW11.20 °C6.90 °C6.21
18:45:0012.50 °C1010.10 hPa70.00 %7.20 °C6.21
18:30:0012.80 °C1010.30 hPa71.00 %7.70 °C6.21
18:15:0013.10 °C1010.00 hPa72.00 %9.00 km/hWSW12.50 °C8.20 °C6.21
18:00:0012.60 °C1010.00 hPa73.00 %4.32 km/hWNW12.60 °C7.90 °C6.21
17:45:0012.10 °C1009.90 hPa74.00 %7.60 °C6.21
17:30:0013.10 °C1009.80 hPa71.00 %4.68 km/hW13.10 °C8.00 °C6.21
17:15:0012.90 °C1009.50 hPa72.00 %6.48 km/hWNW12.70 °C8.00 °C6.21
17:00:0012.40 °C1009.30 hPa69.00 %6.48 km/hW12.10 °C6.90 °C6.21
16:45:0012.90 °C1009.30 hPa66.00 %6.70 °C6.21
16:30:0013.30 °C1009.30 hPa68.00 %4.68 km/hW13.30 °C7.50 °C6.21
16:15:0013.40 °C1009.10 hPa68.00 %3.60 km/hWNW13.40 °C7.60 °C6.21
16:00:0012.50 °C1009.00 hPa73.00 %8.28 km/hNW11.90 °C7.80 °C6.21
15:45:0012.60 °C1009.00 hPa73.00 %7.92 km/hWNW12.10 °C7.90 °C6.21
15:30:0013.10 °C1008.70 hPa72.00 %1.08 km/hNW13.10 °C8.20 °C6.21
15:15:0012.10 °C1008.60 hPa77.00 %10.44 km/hSSW11.10 °C8.20 °C6.21
15:00:0011.50 °C1008.50 hPa83.00 %8.70 °C6.21
14:45:0010.10 °C1008.60 hPa80.00 %6.80 °C6.21
14:30:0011.10 °C1008.60 hPa79.00 %7.60 °C6.21
14:15:0011.00 °C1008.10 hPa81.00 %5.04 km/hNNO10.90 °C7.90 °C6.21
14:00:0010.70 °C1008.00 hPa81.00 %7.60 °C6.21
13:45:0011.30 °C1008.00 hPa80.00 %8.00 °C6.21
13:30:0011.40 °C1007.70 hPa80.00 %8.10 °C6.21
13:15:0011.60 °C1007.60 hPa83.00 %5.40 km/hWSW11.50 °C8.80 °C6.21
13:00:0011.40 °C1007.80 hPa83.00 %8.60 °C5.69
12:45:0010.50 °C1007.80 hPa88.00 %7.56 km/hW9.70 °C8.60 °C5.69
12:30:009.40 °C1007.70 hPa85.00 %7.00 °C5.69
12:15:009.60 °C1007.60 hPa84.00 %7.00 °C5.69
12:00:0011.10 °C1007.10 hPa85.00 %8.70 °C5.69
11:45:0010.40 °C1007.10 hPa90.00 %8.80 °C5.69
11:30:008.60 °C1007.00 hPa90.00 %7.10 °C5.69
11:15:008.50 °C1006.90 hPa90.00 %7.92 km/hNNW7.30 °C7.00 °C5.69
11:00:008.40 °C1006.80 hPa91.00 %7.00 °C5.69
10:45:008.40 °C1006.60 hPa91.00 %9.00 km/hNW6.90 °C7.00 °C5.69
10:30:007.80 °C1006.40 hPa91.00 %6.40 °C5.69
10:15:007.60 °C1006.20 hPa90.00 %5.40 km/hWNW6.90 °C6.10 °C5.69
10:00:007.90 °C1006.20 hPa89.00 %2.88 km/hWNW7.90 °C6.20 °C5.69
09:45:008.80 °C1005.70 hPa90.00 %7.30 °C5.69
09:30:008.70 °C1005.60 hPa91.00 %18.72 km/hWNW5.90 °C7.30 °C5.69
09:15:008.10 °C1005.40 hPa92.00 %6.90 °C5.69
09:00:007.90 °C1005.30 hPa92.00 %7.92 km/hWNW6.60 °C6.70 °C5.69
08:45:007.90 °C1005.00 hPa92.00 %6.70 °C5.69
08:30:007.60 °C1004.70 hPa92.00 %9.72 km/hSW5.80 °C6.40 °C5.69
08:15:007.80 °C1004.40 hPa92.00 %6.48 km/hWNW6.80 °C6.60 °C5.69
08:00:007.90 °C1004.00 hPa92.00 %6.70 °C5.69
07:45:007.80 °C1003.90 hPa92.00 %6.60 °C5.69
07:30:007.80 °C1003.80 hPa92.00 %6.60 °C5.69
07:15:007.80 °C1003.90 hPa92.00 %6.60 °C5.69
07:00:008.10 °C1003.60 hPa92.00 %6.90 °C5.69
06:45:008.20 °C1003.30 hPa92.00 %7.00 °C5.69
06:30:008.10 °C1003.20 hPa92.00 %11.52 km/hNW6.10 °C6.90 °C5.69
06:15:008.00 °C1003.00 hPa92.00 %6.80 °C5.69
06:00:007.80 °C1002.90 hPa92.00 %6.60 °C5.69
05:45:007.80 °C1003.00 hPa92.00 %6.60 °C5.69
05:30:007.80 °C1003.00 hPa92.00 %6.60 °C5.69
05:15:007.80 °C1002.90 hPa92.00 %6.60 °C5.69
05:00:007.90 °C1003.00 hPa92.00 %6.70 °C5.69
04:45:007.90 °C1003.10 hPa91.00 %6.50 °C5.69
04:30:007.90 °C1003.00 hPa91.00 %6.50 °C5.18
04:15:007.90 °C1002.70 hPa91.00 %6.50 °C4.14
04:00:007.90 °C1002.90 hPa91.00 %6.50 °C3.62
03:45:007.80 °C1003.10 hPa91.00 %6.40 °C3.10
03:30:007.60 °C1003.00 hPa90.00 %6.10 °C2.59
03:15:007.60 °C1003.20 hPa90.00 %6.10 °C2.07
03:00:007.60 °C1003.20 hPa89.00 %5.90 °C1.55
02:45:007.60 °C1003.20 hPa89.00 %5.90 °C1.03
02:30:007.80 °C1003.20 hPa88.00 %5.90 °C0.51
02:15:008.00 °C1003.60 hPa88.00 %6.10 °C 
02:00:008.20 °C1003.70 hPa89.00 %6.50 °C 
01:45:008.30 °C1003.70 hPa89.00 %6.60 °C 
01:30:008.30 °C1003.70 hPa89.00 %6.60 °C 
01:15:008.20 °C1003.80 hPa89.00 %6.50 °C 
01:00:008.10 °C1003.70 hPa89.00 %6.40 °C 
00:45:008.10 °C1003.80 hPa89.00 %6.40 °C 
00:30:008.10 °C1004.00 hPa88.00 %6.20 °C 
00:15:008.10 °C1004.20 hPa88.00 %6.20 °C 
00:00:008.10 °C1004.20 hPa88.00 %6.20 °C 

Permanenter Link zu dieser Seite: Wetter im Erzgebirge am 23.06.2015
Performance-Info: Die Erstellung der Seite / Statistik(en) / Tabelle(n) erforderte 5 Datenbankserver-Abfrage(n) und dauerte 122 Millisekunden. (Dieser Messwert ist von der Gesamt-Auslastung des Servers abhängig.)
Erzgebirge - Wetter | Erzgebirge - Wetter (Mobilgeräte) | Komplette Klimadatenbank